sensor_id;sensor_type;location;lat;lon;timestamp;pressure;altitude;pressure_sealevel;temperature;humidity
56632;BME280;42503;39.928;-75.152;2023-02-28T00:00:25;100714.09;;;21.00;32.26
56632;BME280;42503;39.928;-75.152;2023-02-28T00:10:29;100637.13;;;20.85;32.34
56632;BME280;42503;39.928;-75.152;2023-02-28T00:20:31;100638.72;;;20.96;32.51
56632;BME280;42503;39.928;-75.152;2023-02-28T00:30:35;100603.16;;;20.88;32.13
56632;BME280;42503;39.928;-75.152;2023-02-28T00:40:39;100740.28;;;20.94;32.25
56632;BME280;42503;39.928;-75.152;2023-02-28T00:50:40;100740.84;;;20.91;32.55
56632;BME280;42503;39.928;-75.152;2023-02-28T01:00:44;100787.06;;;20.81;32.76
56632;BME280;42503;39.928;-75.152;2023-02-28T01:10:50;100670.19;;;20.92;32.88
56632;BME280;42503;39.928;-75.152;2023-02-28T01:20:54;100632.94;;;20.88;32.82
56632;BME280;42503;39.928;-75.152;2023-02-28T01:30:55;100646.31;;;20.86;32.71
56632;BME280;42503;39.928;-75.152;2023-02-28T01:41:00;100616.59;;;20.81;32.98
56632;BME280;42503;39.928;-75.152;2023-02-28T01:51:08;100593.28;;;20.72;33.16
56632;BME280;42503;39.928;-75.152;2023-02-28T02:01:12;100551.50;;;20.82;33.14
56632;BME280;42503;39.928;-75.152;2023-02-28T02:11:27;100433.50;;;20.59;33.25
56632;BME280;42503;39.928;-75.152;2023-02-28T02:32:30;100369.16;;;20.71;33.20
56632;BME280;42503;39.928;-75.152;2023-02-28T02:52:51;100316.06;;;20.72;33.24
56632;BME280;42503;39.928;-75.152;2023-02-28T03:02:54;100276.66;;;20.65;33.50
56632;BME280;42503;39.928;-75.152;2023-02-28T03:34:44;100145.47;;;20.63;33.35
56632;BME280;42503;39.928;-75.152;2023-02-28T03:44:41;100156.59;;;20.63;33.62
56632;BME280;42503;39.928;-75.152;2023-02-28T03:54:48;100104.03;;;20.67;33.87
56632;BME280;42503;39.928;-75.152;2023-02-28T04:04:51;100055.91;;;20.66;33.72
56632;BME280;42503;39.928;-75.152;2023-02-28T04:14:53;100028.97;;;20.67;33.79
56632;BME280;42503;39.928;-75.152;2023-02-28T04:24:54;100004.22;;;20.65;33.64
56632;BME280;42503;39.928;-75.152;2023-02-28T04:34:55;99978.06;;;20.66;33.95
56632;BME280;42503;39.928;-75.152;2023-02-28T04:44:57;100012.88;;;20.64;34.00
56632;BME280;42503;39.928;-75.152;2023-02-28T04:55:01;99997.59;;;20.61;34.20
56632;BME280;42503;39.928;-75.152;2023-02-28T05:05:02;99975.28;;;20.66;34.36
56632;BME280;42503;39.928;-75.152;2023-02-28T05:15:04;99996.50;;;20.62;36.38
56632;BME280;42503;39.928;-75.152;2023-02-28T05:25:09;99986.13;;;20.68;35.99
56632;BME280;42503;39.928;-75.152;2023-02-28T05:35:12;100051.19;;;20.67;36.21
56632;BME280;42503;39.928;-75.152;2023-02-28T05:45:13;100006.84;;;20.56;36.03
56632;BME280;42503;39.928;-75.152;2023-02-28T05:55:15;99963.06;;;20.67;35.73
56632;BME280;42503;39.928;-75.152;2023-02-28T06:05:17;99864.94;;;20.67;35.59
56632;BME280;42503;39.928;-75.152;2023-02-28T06:15:18;99880.28;;;20.64;35.43
56632;BME280;42503;39.928;-75.152;2023-02-28T06:25:25;99881.91;;;20.65;35.35
56632;BME280;42503;39.928;-75.152;2023-02-28T06:35:27;99905.78;;;20.66;35.42
56632;BME280;42503;39.928;-75.152;2023-02-28T06:45:28;99901.47;;;20.60;35.50
56632;BME280;42503;39.928;-75.152;2023-02-28T06:55:30;99885.91;;;20.59;35.09
56632;BME280;42503;39.928;-75.152;2023-02-28T07:05:31;99872.44;;;20.66;35.40
56632;BME280;42503;39.928;-75.152;2023-02-28T07:15:33;99855.34;;;20.59;34.98
56632;BME280;42503;39.928;-75.152;2023-02-28T07:25:40;99877.50;;;20.64;35.29
56632;BME280;42503;39.928;-75.152;2023-02-28T07:35:41;99807.72;;;20.47;34.94
56632;BME280;42503;39.928;-75.152;2023-02-28T07:45:42;99830.22;;;20.64;35.44
56632;BME280;42503;39.928;-75.152;2023-02-28T07:55:44;99843.63;;;20.62;35.15
56632;BME280;42503;39.928;-75.152;2023-02-28T08:05:46;99812.22;;;20.43;35.49
56632;BME280;42503;39.928;-75.152;2023-02-28T08:15:48;99829.19;;;20.60;35.08
56632;BME280;42503;39.928;-75.152;2023-02-28T08:25:56;99786.56;;;20.51;35.45
56632;BME280;42503;39.928;-75.152;2023-02-28T08:35:57;99804.50;;;20.59;35.32
56632;BME280;42503;39.928;-75.152;2023-02-28T08:45:58;99863.16;;;20.57;34.88
56632;BME280;42503;39.928;-75.152;2023-02-28T08:56:05;99863.78;;;20.54;34.58
56632;BME280;42503;39.928;-75.152;2023-02-28T09:06:08;99869.44;;;20.49;34.44
56632;BME280;42503;39.928;-75.152;2023-02-28T09:16:13;99846.94;;;20.45;34.75
56632;BME280;42503;39.928;-75.152;2023-02-28T09:26:21;99894.56;;;20.58;34.47
56632;BME280;42503;39.928;-75.152;2023-02-28T09:36:26;99864.69;;;20.49;34.63
56632;BME280;42503;39.928;-75.152;2023-02-28T09:46:42;99931.44;;;20.63;34.83
56632;BME280;42503;39.928;-75.152;2023-02-28T09:56:49;99928.56;;;20.68;34.77
56632;BME280;42503;39.928;-75.152;2023-02-28T10:06:56;99974.69;;;20.69;34.77
56632;BME280;42503;39.928;-75.152;2023-02-28T10:17:04;100012.47;;;20.70;34.79
56632;BME280;42503;39.928;-75.152;2023-02-28T10:27:24;99995.78;;;20.70;34.33
56632;BME280;42503;39.928;-75.152;2023-02-28T10:37:26;99994.16;;;20.69;34.64
56632;BME280;42503;39.928;-75.152;2023-02-28T10:47:30;100028.06;;;20.71;34.76
56632;BME280;42503;39.928;-75.152;2023-02-28T10:57:33;100016.94;;;20.71;34.48
56632;BME280;42503;39.928;-75.152;2023-02-28T11:07:38;100043.59;;;20.72;34.42
56632;BME280;42503;39.928;-75.152;2023-02-28T11:17:40;100099.78;;;20.69;34.82
56632;BME280;42503;39.928;-75.152;2023-02-28T11:37:50;100112.13;;;20.63;34.61
56632;BME280;42503;39.928;-75.152;2023-02-28T11:48:52;100148.19;;;20.68;34.47
56632;BME280;42503;39.928;-75.152;2023-02-28T12:29:27;100271.72;;;20.62;34.42
56632;BME280;42503;39.928;-75.152;2023-02-28T12:39:33;100275.72;;;20.46;34.54
56632;BME280;42503;39.928;-75.152;2023-02-28T12:49:56;100305.06;;;20.62;34.60
56632;BME280;42503;39.928;-75.152;2023-02-28T13:00:13;100284.06;;;20.46;34.94
56632;BME280;42503;39.928;-75.152;2023-02-28T13:10:17;100330.72;;;20.54;34.82
56632;BME280;42503;39.928;-75.152;2023-02-28T13:20:46;100332.88;;;20.57;35.03
56632;BME280;42503;39.928;-75.152;2023-02-28T13:40:52;100375.66;;;20.61;34.91
56632;BME280;42503;39.928;-75.152;2023-02-28T13:50:54;100392.91;;;20.63;34.88
56632;BME280;42503;39.928;-75.152;2023-02-28T14:01:29;100390.69;;;20.60;34.92
56632;BME280;42503;39.928;-75.152;2023-02-28T14:11:33;100401.81;;;20.60;35.27
56632;BME280;42503;39.928;-75.152;2023-02-28T14:21:36;100347.16;;;20.16;34.86
56632;BME280;42503;39.928;-75.152;2023-02-28T14:31:58;100429.13;;;20.53;34.96
56632;BME280;42503;39.928;-75.152;2023-02-28T14:42:02;100430.22;;;20.47;35.17
56632;BME280;42503;39.928;-75.152;2023-02-28T14:52:21;100445.81;;;20.43;35.28
56632;BME280;42503;39.928;-75.152;2023-02-28T15:02:25;100466.66;;;20.45;35.55
56632;BME280;42503;39.928;-75.152;2023-02-28T15:12:26;100471.41;;;20.45;36.14
56632;BME280;42503;39.928;-75.152;2023-02-28T15:22:36;100494.75;;;20.39;35.89
56632;BME280;42503;39.928;-75.152;2023-02-28T15:32:39;100503.41;;;20.37;35.64
56632;BME280;42503;39.928;-75.152;2023-02-28T15:42:41;100496.50;;;20.35;35.75
56632;BME280;42503;39.928;-75.152;2023-02-28T15:52:51;100490.22;;;20.14;35.49
56632;BME280;42503;39.928;-75.152;2023-02-28T16:02:53;100513.75;;;20.26;35.62
56632;BME280;42503;39.928;-75.152;2023-02-28T16:12:55;100519.84;;;20.28;35.61
56632;BME280;42503;39.928;-75.152;2023-02-28T16:22:57;100532.66;;;20.24;35.42
56632;BME280;42503;39.928;-75.152;2023-02-28T16:33:02;100556.00;;;20.23;35.50
56632;BME280;42503;39.928;-75.152;2023-02-28T16:43:24;100579.06;;;20.19;35.29
56632;BME280;42503;39.928;-75.152;2023-02-28T16:53:31;100583.25;;;20.21;35.30
56632;BME280;42503;39.928;-75.152;2023-02-28T17:03:33;100609.34;;;20.20;35.54
56632;BME280;42503;39.928;-75.152;2023-02-28T17:13:34;100622.69;;;20.18;35.14
56632;BME280;42503;39.928;-75.152;2023-02-28T17:23:38;100607.97;;;20.23;34.96
56632;BME280;42503;39.928;-75.152;2023-02-28T17:33:39;100597.06;;;20.37;35.05
56632;BME280;42503;39.928;-75.152;2023-02-28T17:43:41;100623.69;;;20.43;34.84
56632;BME280;42503;39.928;-75.152;2023-02-28T17:53:43;100626.75;;;20.46;34.71
56632;BME280;42503;39.928;-75.152;2023-02-28T18:03:47;100629.25;;;20.53;34.32
56632;BME280;42503;39.928;-75.152;2023-02-28T18:13:53;100620.06;;;20.58;34.48
56632;BME280;42503;39.928;-75.152;2023-02-28T18:23:56;100634.75;;;20.63;34.39
56632;BME280;42503;39.928;-75.152;2023-02-28T18:33:58;100630.13;;;20.48;34.29
56632;BME280;42503;39.928;-75.152;2023-02-28T18:44:00;100680.34;;;20.67;34.41
56632;BME280;42503;39.928;-75.152;2023-02-28T18:54:10;100710.63;;;20.69;34.70
56632;BME280;42503;39.928;-75.152;2023-02-28T19:04:12;100729.78;;;20.70;34.66
56632;BME280;42503;39.928;-75.152;2023-02-28T19:14:14;100738.69;;;20.72;34.19
56632;BME280;42503;39.928;-75.152;2023-02-28T19:24:18;100770.94;;;20.73;34.40
56632;BME280;42503;39.928;-75.152;2023-02-28T19:34:19;100797.63;;;20.74;34.51
56632;BME280;42503;39.928;-75.152;2023-02-28T19:44:20;100810.41;;;20.75;34.69
56632;BME280;42503;39.928;-75.152;2023-02-28T19:54:23;100834.34;;;20.76;34.65
56632;BME280;42503;39.928;-75.152;2023-02-28T20:04:28;100845.50;;;20.61;34.67
56632;BME280;42503;39.928;-75.152;2023-02-28T20:14:29;100873.28;;;20.76;34.61
56632;BME280;42503;39.928;-75.152;2023-02-28T20:24:31;100873.28;;;20.66;34.33
56632;BME280;42503;39.928;-75.152;2023-02-28T20:34:32;100855.53;;;20.62;34.39
56632;BME280;42503;39.928;-75.152;2023-02-28T20:44:36;100910.81;;;20.74;34.55
56632;BME280;42503;39.928;-75.152;2023-02-28T20:54:38;100932.25;;;20.63;34.60
56632;BME280;42503;39.928;-75.152;2023-02-28T21:04:45;100970.34;;;20.58;34.53
56632;BME280;42503;39.928;-75.152;2023-02-28T21:14:46;100991.19;;;20.60;34.29
56632;BME280;42503;39.928;-75.152;2023-02-28T21:24:51;101000.34;;;20.55;34.34
56632;BME280;42503;39.928;-75.152;2023-02-28T21:34:53;100987.28;;;20.56;34.38
56632;BME280;42503;39.928;-75.152;2023-02-28T21:44:54;100998.41;;;20.61;34.48
56632;BME280;42503;39.928;-75.152;2023-02-28T21:54:57;101020.09;;;20.64;34.59
56632;BME280;42503;39.928;-75.152;2023-02-28T22:04:58;101042.06;;;20.66;34.97
56632;BME280;42503;39.928;-75.152;2023-02-28T22:15:06;101049.03;;;20.53;34.94
56632;BME280;42503;39.928;-75.152;2023-02-28T22:25:10;101094.06;;;20.65;34.81
56632;BME280;42503;39.928;-75.152;2023-02-28T22:35:17;101134.09;;;20.64;34.94
56632;BME280;42503;39.928;-75.152;2023-02-28T22:45:20;101170.78;;;20.61;34.89
56632;BME280;42503;39.928;-75.152;2023-02-28T22:55:21;101178.88;;;20.58;35.14
56632;BME280;42503;39.928;-75.152;2023-02-28T23:05:23;101203.03;;;20.57;34.93
56632;BME280;42503;39.928;-75.152;2023-02-28T23:15:24;101246.97;;;20.60;34.82
56632;BME280;42503;39.928;-75.152;2023-02-28T23:25:25;101275.31;;;20.57;35.21
56632;BME280;42503;39.928;-75.152;2023-02-28T23:35:27;101284.19;;;20.49;35.29
56632;BME280;42503;39.928;-75.152;2023-02-28T23:45:28;101332.03;;;20.56;35.04
56632;BME280;42503;39.928;-75.152;2023-02-28T23:55:32;101349.81;;;20.55;35.57
